Aviation Digital Data Service (ADDS)

Output produced by METARs form (1422 UTC 27 January 2015)
found at http://aviationweather.gov/adds/metars/
 
KFRG 271353Z AUTO 35015G23KT 1/2SM FZFG VV011 M07/M09 A2963 RMK AO2 PK WND 35027/1329 TWR VIS 3/4 SLP035 T10671089 PWINO FZRANO $
KISP 271415Z 34021G24KT 1/8SM R06/2000V2400FT SN FZFG VV007 M06/M08 A2958 RMK AO2 P0002 T10611078 $
KISP 271356Z COR 33017G26KT 1/8SM R06/2000V2200FT +SN FZFG VV005 M06/M07 A2958 RMK AO2 PK WND 34026/1351 SLP016 SNINCR 1/23 P0009 T10561072 $
KISP 271327Z 34018G25KT 1/8SM R06/1800V2000FT +SN FZFG OVC004 M06/M07 A2958 RMK AO2 P0005 T10561072 $
KISP 271132Z 2712/2812 01028G40KT 1/4SM +SN FZFG BLSN VV005 
     FM271500 34026G39KT 1/2SM SN FZFG BLSN OVC006 
     FM280000 34022G34KT 2SM -SN BLSN OVC015 
     FM280300 33018G26KT 2SM -SHSN OVC035
       
KJFK 271351Z 34018G24KT 1SM R04R/1800V3500FT -SN BLSN FEW007 OVC013 M06/M09 A2968 RMK AO2 PK WND 33026/1329 SLP050 P0000 T10561089 $
KJFK 271132Z 2712/2818 36024G34KT 1SM -SN OVC012 
     TEMPO 2712/2715 1/2SM SN FZFG BLSN VV006 
     FM271600 33023G34KT 1SM -SN BLSN OVC015 
     FM272200 33020G32KT 2SM -SN BLSN OVC020 
     FM280200 32018G28KT 2SM -SHSN OVC035 
     FM280500 32016G24KT P6SM SCT040 SCT100 
     FM281300 31017G26KT P6SM BKN250
       
KBDR 271416Z 32013G20KT 3/4SM -SN BR VV014 M07/M09 A2962 RMK AO2 P0001 T10721089 $
KBDR 271400Z 32013KT 3/4SM -SN BR VV015 M07/M08 A2962 RMK AO2 P0000 T10671083 $
KBDR 271352Z 32011G18KT 1SM -SN BR VV015 M07/M08 A2962 RMK AO2 SNB43 SLP029 P0001 T10671083 $
KBDR 271324Z 33012G21KT 3/4SM BR VV015 M06/M07 A2962 RMK AO2 T10561072 PWINO FZRANO $
KBDR 271132Z 2712/2812 01024G37KT 1/2SM SN FZFG OVC012 
     FM271500 35023G34KT 1SM -SN BLSN OVC015 
     FM280000 34016G27KT 2SM -SN BLSN OVC020 
     FM280300 33012G21KT 2SM -SHSN OVC035